Time;durP1;ratioP1;P1;durP2;ratioP2;P2;SDS_P1;SDS_P2;PMS_P1;PMS_P2;Temp;Humidity;BMP_temperature;BMP_pressure;BME280_temperature;BME280_humidity;BME280_pressure;Samples;Min_cycle;Max_cycle;Signal;HPM_P1;HPM_P2
2022/12/25 00:01:07;;;;;;;9.05;3.03;;;12.10;99.90;;;;;;5006283;28;20200;-80
2022/12/25 00:03:32;;;;;;;9.25;3.53;;;12.30;99.90;;;;;;5003764;28;20260;-78
2022/12/25 00:05:58;;;;;;;6.20;3.30;;;12.40;99.90;;;;;;5005995;28;20204;-79
2022/12/25 00:08:25;;;;;;;6.93;3.38;;;12.40;99.90;;;;;;5000491;28;20157;-80
2022/12/25 00:11:03;;;;;;;9.35;3.25;;;12.30;99.90;;;;;;4997018;28;20645;-78
2022/12/25 00:13:29;;;;;;;8.40;3.95;;;12.30;99.90;;;;;;4996291;28;20283;-85
2022/12/25 00:15:54;;;;;;;9.55;4.05;;;12.30;99.90;;;;;;4996552;28;20251;-79
2022/12/25 00:18:21;;;;;;;7.90;3.22;;;12.20;99.90;;;;;;4996639;28;20173;-80
2022/12/25 00:21:04;;;;;;;14.10;3.47;;;12.30;99.90;;;;;;4998068;28;20185;-78
2022/12/25 00:23:30;;;;;;;8.15;3.42;;;12.20;99.90;;;;;;4997043;28;20254;-78
2022/12/25 00:25:56;;;;;;;7.10;3.58;;;12.10;99.90;;;;;;4999419;28;20165;-78
2022/12/25 00:28:23;;;;;;;10.32;3.00;;;12.20;99.90;;;;;;4996730;28;20180;-77
2022/12/25 00:30:49;;;;;;;7.80;3.40;;;12.20;99.90;;;;;;4996060;28;20254;-78
2022/12/25 00:33:16;;;;;;;10.30;3.00;;;12.30;99.90;;;;;;4996170;28;20228;-78
2022/12/25 00:35:42;;;;;;;6.15;2.92;;;12.40;99.90;;;;;;4995961;28;20252;-78
2022/12/25 00:38:08;;;;;;;6.57;3.00;;;12.30;99.90;;;;;;4994753;28;20702;-77
2022/12/25 00:40:39;;;;;;;10.52;2.88;;;12.40;99.90;;;;;;4997467;28;20635;-79
2022/12/25 00:43:05;;;;;;;5.53;2.60;;;12.40;99.90;;;;;;4994308;28;20193;-78
2022/12/25 00:45:31;;;;;;;6.38;3.28;;;12.50;99.90;;;;;;4998508;28;20172;-78
2022/12/25 00:47:56;;;;;;;6.43;2.72;;;12.60;99.90;;;;;;5008434;28;20212;-79
2022/12/25 00:50:22;;;;;;;7.72;3.20;;;12.60;99.90;;;;;;5013211;28;20217;-81
2022/12/25 00:52:47;;;;;;;4.03;2.90;;;12.50;99.90;;;;;;4995485;28;20300;-83
2022/12/25 00:55:13;;;;;;;4.22;2.80;;;12.30;99.90;;;;;;4995629;28;20165;-79
2022/12/25 00:57:38;;;;;;;5.57;2.22;;;12.30;99.90;;;;;;4995639;28;20170;-78
2022/12/25 01:00:04;;;;;;;4.88;2.80;;;12.30;99.90;;;;;;4995003;28;20162;-80
2022/12/25 01:02:31;;;;;;;3.38;2.33;;;12.50;99.90;;;;;;4995378;28;20672;-79
2022/12/25 01:04:57;;;;;;;13.27;2.78;;;12.60;99.90;;;;;;4995277;28;20161;-78
2022/12/25 01:07:25;;;;;;;5.95;2.90;;;12.60;99.90;;;;;;4995731;28;20177;-78
2022/12/25 01:12:38;;;;;;;5.22;2.90;;;12.30;99.90;;;;;;4994930;28;20224;-78
2022/12/25 01:15:06;;;;;;;6.43;2.58;;;12.40;99.90;;;;;;4995298;28;20201;-79
2022/12/25 01:17:32;;;;;;;8.10;2.47;;;12.50;99.90;;;;;;4994995;28;20176;-78
2022/12/25 01:19:58;;;;;;;4.13;2.13;;;12.50;99.90;;;;;;4994776;28;20563;-79
2022/12/25 01:22:24;;;;;;;5.18;2.33;;;12.50;99.90;;;;;;4994664;28;21001;-79
2022/12/25 01:24:50;;;;;;;4.20;2.05;;;12.40;99.90;;;;;;4993011;28;20208;-79
2022/12/25 01:27:15;;;;;;;5.60;2.20;;;12.40;99.90;;;;;;4994083;28;20169;-78
2022/12/25 01:29:41;;;;;;;5.15;2.00;;;12.30;99.90;;;;;;4994158;28;20209;-78
2022/12/25 01:32:07;;;;;;;7.53;2.05;;;12.40;99.90;;;;;;4994000;28;20181;-78
2022/12/25 01:34:33;;;;;;;4.13;1.80;;;12.40;99.90;;;;;;4994320;28;20184;-79
2022/12/25 01:36:58;;;;;;;7.18;1.90;;;12.40;99.90;;;;;;4994227;28;20191;-79
2022/12/25 01:39:24;;;;;;;3.75;1.88;;;12.40;99.90;;;;;;4993754;28;20248;-78
2022/12/25 01:41:50;;;;;;;5.63;2.28;;;12.40;99.90;;;;;;4994077;28;20195;-79
2022/12/25 01:44:18;;;;;;;5.50;2.20;;;12.40;99.90;;;;;;4993995;28;20176;-89
2022/12/25 01:46:44;;;;;;;3.72;1.58;;;12.20;99.90;;;;;;4994346;28;20180;-84
2022/12/25 01:49:22;;;;;;;5.97;2.15;;;12.30;99.90;;;;;;4995168;28;20568;-79
2022/12/25 01:52:06;;;;;;;5.00;1.80;;;12.30;99.90;;;;;;4994666;28;20262;-81
2022/12/25 01:54:39;;;;;;;2.47;1.52;;;12.30;99.90;;;;;;4994375;28;20165;-85
2022/12/25 01:57:10;;;;;;;2.72;1.20;;;12.30;99.90;;;;;;4992550;28;20245;-88
2022/12/25 01:59:36;;;;;;;5.00;1.27;;;12.30;99.90;;;;;;4993078;28;20530;-78
2022/12/25 02:02:03;;;;;;;2.72;1.20;;;12.20;99.90;;;;;;4993569;28;20189;-79
2022/12/25 02:04:40;;;;;;;4.68;1.45;;;12.00;99.90;;;;;;4993289;28;20165;-78
2022/12/25 02:07:23;;;;;;;6.90;1.30;;;12.10;99.90;;;;;;4993341;28;20184;-78
2022/12/25 02:09:49;;;;;;;2.28;1.40;;;12.20;99.90;;;;;;4993193;28;20208;-83
2022/12/25 02:12:27;;;;;;;3.50;1.48;;;12.30;99.90;;;;;;4993341;28;20212;-81
2022/12/25 02:14:57;;;;;;;2.50;1.20;;;12.50;99.90;;;;;;4993540;28;20177;-79
2022/12/25 02:17:37;;;;;;;2.60;1.38;;;12.40;99.90;;;;;;4993468;28;20169;-79
2022/12/25 02:20:27;;;;;;;3.35;1.25;;;12.50;99.90;;;;;;4993008;28;20195;-78
2022/12/25 02:23:30;;;;;;;2.60;1.40;;;12.60;99.90;;;;;;4993181;28;20193;-83
2022/12/25 02:26:16;;;;;;;3.65;1.40;;;12.50;99.90;;;;;;4993347;28;20533;-89
2022/12/25 02:29:05;;;;;;;6.40;2.20;;;12.40;99.90;;;;;;4993346;28;20205;-78
2022/12/25 02:31:52;;;;;;;8.45;1.52;;;12.40;99.90;;;;;;4993127;28;20173;-80
2022/12/25 02:34:27;;;;;;;3.90;1.40;;;12.60;99.90;;;;;;4992992;28;20181;-79
2022/12/25 02:37:10;;;;;;;2.90;1.58;;;12.50;99.90;;;;;;4993185;28;20697;-78
2022/12/25 02:39:58;;;;;;;3.78;1.35;;;12.60;99.90;;;;;;4992999;28;20594;-78
2022/12/25 03:06:41;;;;;;;5.60;1.80;;;12.70;99.90;;;;;;4991565;28;20209;-80
2022/12/25 03:07:27;;;;;;;3.38;1.20;;;12.90;99.90;;;;;;4993163;28;20244;-79
2022/12/25 03:12:48;;;;;;;4.95;1.30;;;12.80;99.90;;;;;;4997248;28;20203;-88
2022/12/25 03:18:04;;;;;;;5.90;1.30;;;12.70;99.90;;;;;;4997353;28;20223;-86
2022/12/25 03:28:48;;;;;;;5.38;1.45;;;12.60;99.90;;;;;;5000120;28;20323;-78
2022/12/25 03:31:32;;;;;;;5.90;1.25;;;12.80;99.90;;;;;;5001821;28;20185;-81
2022/12/25 04:36:20;;;;;;;1.88;1.58;;;11.90;99.90;;;;;;4995752;28;20176;-78
2022/12/25 04:38:46;;;;;;;3.80;1.67;;;12.00;99.90;;;;;;4995570;28;20161;-79
2022/12/25 04:41:13;;;;;;;3.53;2.05;;;12.10;99.90;;;;;;4995470;28;20174;-79
2022/12/25 04:43:39;;;;;;;2.08;1.60;;;12.10;99.90;;;;;;4996026;28;20189;-78
2022/12/25 04:46:05;;;;;;;3.10;1.88;;;12.30;99.90;;;;;;4997274;28;20169;-78
2022/12/25 04:48:33;;;;;;;6.88;2.38;;;12.20;99.90;;;;;;5000584;28;20248;-78
2022/12/25 04:51:17;;;;;;;7.10;3.08;;;12.30;99.90;;;;;;5016312;28;20261;-78
2022/12/25 04:53:45;;;;;;;4.15;2.42;;;12.50;99.90;;;;;;4996754;28;20292;-78
2022/12/25 04:56:11;;;;;;;5.63;2.95;;;12.50;99.90;;;;;;4995994;28;20193;-78
2022/12/25 04:58:36;;;;;;;12.88;2.90;;;12.40;99.90;;;;;;4995732;28;20506;-84
2022/12/25 05:01:03;;;;;;;1.95;1.73;;;12.30;99.90;;;;;;4996303;28;20267;-78
2022/12/25 05:03:29;;;;;;;9.15;2.55;;;12.20;99.90;;;;;;4995600;28;20177;-78
2022/12/25 05:05:55;;;;;;;7.30;2.83;;;12.10;99.90;;;;;;4996214;28;20172;-79
2022/12/25 05:08:21;;;;;;;5.93;2.60;;;12.20;99.90;;;;;;4994640;28;20173;-79
2022/12/25 05:10:47;;;;;;;2.58;2.08;;;12.30;99.90;;;;;;4996421;28;20244;-78
2022/12/25 05:13:12;;;;;;;3.60;1.90;;;12.30;99.90;;;;;;4994577;28;20267;-81
2022/12/25 05:15:39;;;;;;;6.28;2.42;;;12.30;99.90;;;;;;4996897;28;20165;-79
2022/12/25 05:18:05;;;;;;;4.20;2.22;;;12.20;99.90;;;;;;4995315;28;20171;-79
2022/12/25 05:20:30;;;;;;;3.95;1.90;;;12.20;99.90;;;;;;4995771;28;20264;-80
2022/12/25 05:22:56;;;;;;;4.50;2.10;;;12.20;99.90;;;;;;4994753;28;20189;-77
2022/12/25 05:25:22;;;;;;;4.68;2.03;;;12.20;99.90;;;;;;4995245;28;20189;-79
2022/12/25 05:27:47;;;;;;;2.00;1.80;;;12.40;99.90;;;;;;4994294;28;20169;-88
2022/12/25 05:30:13;;;;;;;3.55;2.17;;;12.50;99.90;;;;;;4994915;28;20748;-78
2022/12/25 05:32:38;;;;;;;5.25;2.10;;;12.50;99.90;;;;;;4994113;28;20192;-78
2022/12/25 05:35:06;;;;;;;2.97;2.42;;;12.40;99.90;;;;;;4993814;28;20208;-78
2022/12/25 05:37:31;;;;;;;3.58;1.83;;;12.40;99.90;;;;;;4995651;28;20185;-79
2022/12/25 05:39:58;;;;;;;3.75;2.00;;;12.40;99.90;;;;;;4996360;28;20165;-79
2022/12/25 05:42:23;;;;;;;3.03;2.00;;;12.30;99.90;;;;;;4994303;28;20720;-83
2022/12/25 05:44:49;;;;;;;2.05;1.85;;;12.30;99.90;;;;;;4994074;28;20169;-79
2022/12/25 05:47:14;;;;;;;2.72;1.60;;;12.20;99.90;;;;;;4994023;28;20650;-81
2022/12/25 05:49:40;;;;;;;5.10;2.15;;;12.30;99.90;;;;;;4994662;28;20205;-78
2022/12/25 05:52:06;;;;;;;2.47;2.15;;;12.30;99.90;;;;;;4994621;28;20216;-79
2022/12/25 05:54:33;;;;;;;2.67;1.95;;;12.30;99.90;;;;;;4993694;28;20251;-87
2022/12/25 05:56:59;;;;;;;3.97;2.50;;;12.40;99.90;;;;;;4995130;28;20157;-88
2022/12/25 05:59:24;;;;;;;2.63;1.65;;;12.60;99.90;;;;;;4994209;28;20641;-84
2022/12/25 06:01:50;;;;;;;8.80;2.58;;;12.70;99.90;;;;;;4994193;28;20177;-77
2022/12/25 06:04:15;;;;;;;3.13;2.20;;;12.60;99.90;;;;;;4993370;28;20214;-78
2022/12/25 06:06:41;;;;;;;3.08;2.63;;;12.60;99.90;;;;;;4993955;28;20165;-83
2022/12/25 06:09:07;;;;;;;3.20;2.08;;;12.70;99.90;;;;;;4994388;28;20650;-78
2022/12/25 06:11:33;;;;;;;3.47;2.42;;;12.70;99.90;;;;;;4994752;28;20164;-82
2022/12/25 06:13:59;;;;;;;4.85;2.05;;;12.60;99.90;;;;;;4994738;28;20252;-79
2022/12/25 06:16:24;;;;;;;2.72;2.22;;;12.50;99.90;;;;;;4994818;28;20639;-79
2022/12/25 06:18:51;;;;;;;2.22;1.98;;;12.50;99.90;;;;;;4994724;28;20180;-78
2022/12/25 06:21:16;;;;;;;4.50;2.95;;;12.50;99.90;;;;;;4994532;28;20169;-79
2022/12/25 06:23:42;;;;;;;3.65;2.38;;;12.40;99.90;;;;;;4994143;28;20197;-79
2022/12/25 06:26:11;;;;;;;4.88;2.50;;;12.50;99.90;;;;;;4992440;28;20181;-80
2022/12/25 06:28:36;;;;;;;3.15;2.25;;;12.70;99.90;;;;;;4993255;28;20186;-77
2022/12/25 06:31:10;;;;;;;3.72;2.33;;;12.60;99.90;;;;;;4994354;28;20209;-78
2022/12/25 06:33:36;;;;;;;2.45;2.25;;;12.60;99.90;;;;;;4992287;28;20204;-78
2022/12/25 06:36:11;;;;;;;5.35;2.90;;;12.60;99.90;;;;;;4994015;28;20165;-77
2022/12/25 06:38:37;;;;;;;6.50;2.65;;;12.60;99.90;;;;;;4995046;28;20260;-78
2022/12/25 06:41:09;;;;;;;9.73;2.70;;;12.50;99.90;;;;;;4995080;28;20255;-77
2022/12/25 06:43:35;;;;;;;3.42;3.10;;;12.50;99.90;;;;;;4994615;28;20275;-79
2022/12/25 06:46:02;;;;;;;3.60;2.58;;;12.60;99.90;;;;;;4997502;28;20252;-79
2022/12/25 06:48:28;;;;;;;4.15;2.50;;;12.60;99.90;;;;;;4999880;28;20169;-88
2022/12/25 06:50:53;;;;;;;4.40;3.20;;;12.50;99.90;;;;;;5002856;28;20231;-80
2022/12/25 06:53:19;;;;;;;3.15;2.85;;;12.60;99.90;;;;;;5007590;28;20243;-79
2022/12/25 06:55:44;;;;;;;2.75;2.55;;;12.60;99.90;;;;;;4999127;28;20188;-79
2022/12/25 06:58:10;;;;;;;12.15;2.33;;;12.60;99.90;;;;;;4999156;28;20231;-78
2022/12/25 07:00:36;;;;;;;4.55;2.40;;;12.70;99.90;;;;;;4998674;28;20166;-78
2022/12/25 07:03:01;;;;;;;3.40;2.65;;;12.70;99.90;;;;;;4996897;28;20200;-81
2022/12/25 07:05:27;;;;;;;3.10;2.10;;;12.70;99.90;;;;;;4998613;28;20173;-78
2022/12/25 07:07:52;;;;;;;3.35;1.60;;;12.40;99.90;;;;;;4998147;28;20180;-78
2022/12/25 07:10:18;;;;;;;2.53;2.17;;;12.30;99.90;;;;;;4997785;28;20739;-84
2022/12/25 07:12:44;;;;;;;4.18;2.25;;;12.30;99.90;;;;;;4997808;28;20277;-78
2022/12/25 07:15:10;;;;;;;2.22;2.03;;;12.20;99.90;;;;;;4998139;28;20276;-79
2022/12/25 07:17:36;;;;;;;6.38;2.25;;;12.30;99.90;;;;;;4998488;28;20932;-80
2022/12/25 07:20:01;;;;;;;3.05;1.80;;;12.40;99.90;;;;;;4997960;28;20204;-78
2022/12/25 07:22:28;;;;;;;2.55;1.90;;;12.50;99.90;;;;;;4996679;28;20268;-79
2022/12/25 07:24:54;;;;;;;3.03;1.85;;;12.60;99.90;;;;;;4998171;28;20569;-82
2022/12/25 07:27:19;;;;;;;6.72;2.33;;;12.50;99.90;;;;;;4998051;28;20223;-79
2022/12/25 07:29:45;;;;;;;2.40;2.08;;;12.50;99.90;;;;;;4997393;28;20201;-78
2022/12/25 07:32:11;;;;;;;2.17;1.98;;;12.50;99.90;;;;;;4997222;28;20185;-88
2022/12/25 07:34:36;;;;;;;1.73;1.63;;;12.50;99.90;;;;;;4997139;28;20649;-78
2022/12/25 07:37:02;;;;;;;2.70;1.80;;;12.70;99.90;;;;;;4997310;28;20614;-89
2022/12/25 07:39:27;;;;;;;2.53;2.00;;;12.70;99.90;;;;;;4997479;28;20169;-78
2022/12/25 07:41:53;;;;;;;13.43;2.47;;;12.70;99.90;;;;;;4997066;28;20174;-78
2022/12/25 07:44:18;;;;;;;2.25;1.80;;;12.60;99.90;;;;;;4997043;28;20169;-78
2022/12/25 07:46:44;;;;;;;2.28;2.08;;;12.70;99.90;;;;;;4996346;28;20173;-79
2022/12/25 07:49:11;;;;;;;2.22;2.13;;;12.40;99.90;;;;;;4996007;28;20243;-78
2022/12/25 07:51:36;;;;;;;2.83;1.90;;;12.30;99.90;;;;;;4996286;28;20175;-83
2022/12/25 07:54:02;;;;;;;5.03;1.95;;;12.30;99.90;;;;;;4997488;28;20181;-81
2022/12/25 07:56:28;;;;;;;2.30;2.10;;;12.40;99.90;;;;;;5001036;28;20169;-79
2022/12/25 07:58:53;;;;;;;2.92;2.03;;;12.50;99.90;;;;;;5006179;28;20180;-80
2022/12/25 08:01:22;;;;;;;3.20;2.17;;;12.70;99.90;;;;;;4996570;28;20366;-79
2022/12/25 08:03:52;;;;;;;7.63;2.05;;;12.70;99.90;;;;;;4995736;28;20192;-78
2022/12/25 08:06:19;;;;;;;2.28;2.08;;;12.70;99.90;;;;;;4996246;28;20226;-84
2022/12/25 08:08:45;;;;;;;2.42;1.90;;;12.80;99.90;;;;;;4984190;28;20224;-80
2022/12/25 08:11:10;;;;;;;7.10;2.30;;;12.80;99.90;;;;;;4993809;28;20204;-87
2022/12/25 08:13:36;;;;;;;1.83;1.67;;;12.70;99.90;;;;;;4996053;28;21020;-86
2022/12/25 08:16:06;;;;;;;3.22;2.50;;;12.70;99.90;;;;;;4995994;28;20180;-80
2022/12/25 08:18:32;;;;;;;3.67;2.00;;;12.40;99.90;;;;;;4995329;28;20161;-82
2022/12/25 08:21:16;;;;;;;7.03;1.90;;;12.50;99.90;;;;;;4995622;28;20259;-83
2022/12/25 08:23:44;;;;;;;2.70;2.45;;;12.60;99.90;;;;;;4995191;28;20200;-90
2022/12/25 08:26:29;;;;;;;5.32;2.42;;;12.50;99.90;;;;;;4998668;28;20161;-79
2022/12/25 08:28:55;;;;;;;1.73;1.63;;;12.60;99.90;;;;;;5000507;28;20181;-79
2022/12/25 08:31:26;;;;;;;2.17;1.98;;;12.60;99.90;;;;;;4997624;28;20516;-79
2022/12/25 08:33:54;;;;;;;3.35;2.70;;;12.60;99.90;;;;;;5012537;28;20189;-80
2022/12/25 08:36:21;;;;;;;2.42;2.17;;;12.60;99.90;;;;;;5007241;28;20173;-79
2022/12/25 08:38:47;;;;;;;4.80;3.00;;;12.60;99.90;;;;;;5001484;28;20209;-83
2022/12/25 08:41:13;;;;;;;5.22;2.58;;;12.70;99.90;;;;;;4995889;28;20188;-79
2022/12/25 08:43:39;;;;;;;5.53;2.85;;;12.90;99.90;;;;;;4991890;28;20190;-79
2022/12/25 08:46:05;;;;;;;3.47;2.67;;;12.80;99.90;;;;;;4988342;28;20603;-80
2022/12/25 08:48:32;;;;;;;2.83;2.38;;;13.00;99.90;;;;;;4993395;28;20325;-82
2022/12/25 08:50:57;;;;;;;2.83;2.47;;;12.70;99.90;;;;;;5002117;28;20289;-80
2022/12/25 08:53:23;;;;;;;1.92;1.83;;;12.60;99.90;;;;;;5021343;28;20242;-79
2022/12/25 08:55:55;;;;;;;2.63;2.05;;;12.60;99.90;;;;;;5008204;28;20209;-81
2022/12/25 08:58:20;;;;;;;10.13;2.33;;;12.60;99.90;;;;;;4995956;28;20162;-79
2022/12/25 09:00:46;;;;;;;2.50;2.30;;;12.60;99.90;;;;;;4994298;28;20192;-78
2022/12/25 09:03:11;;;;;;;2.35;2.10;;;12.80;99.90;;;;;;4994218;28;20197;-80
2022/12/25 09:05:37;;;;;;;2.45;2.25;;;12.90;99.90;;;;;;4995159;28;20586;-83
2022/12/25 09:08:04;;;;;;;6.43;2.78;;;12.90;99.90;;;;;;4996474;28;20173;-92
2022/12/25 09:10:33;;;;;;;5.43;2.92;;;12.90;99.90;;;;;;4993708;28;20209;-80
2022/12/25 09:12:59;;;;;;;3.88;2.60;;;13.00;99.90;;;;;;5010068;28;20185;-80
2022/12/25 09:15:24;;;;;;;4.05;2.58;;;13.20;99.90;;;;;;4994043;28;20176;-80
2022/12/25 09:17:50;;;;;;;14.32;3.00;;;12.90;99.90;;;;;;5008567;28;20256;-80
2022/12/25 09:20:15;;;;;;;3.55;2.75;;;12.60;99.90;;;;;;5009550;28;20184;-79
2022/12/25 09:22:41;;;;;;;3.63;2.42;;;12.30;99.90;;;;;;4995948;28;20305;-83
2022/12/25 09:25:07;;;;;;;3.08;2.65;;;12.30;99.90;;;;;;5002293;28;20186;-80
2022/12/25 09:27:38;;;;;;;4.43;2.92;;;12.40;99.90;;;;;;4990006;28;20203;-93
2022/12/25 09:30:09;;;;;;;3.30;3.00;;;12.70;99.90;;;;;;5002256;28;20208;-89
2022/12/25 09:32:34;;;;;;;2.80;2.50;;;12.80;99.90;;;;;;5000810;28;20196;-95
2022/12/25 09:35:00;;;;;;;3.85;3.15;;;12.90;99.90;;;;;;4996629;28;20177;-81
2022/12/25 09:37:27;;;;;;;3.20;2.90;;;12.80;99.90;;;;;;4996093;28;20165;-80
2022/12/25 09:39:53;;;;;;;2.92;2.70;;;12.90;99.90;;;;;;4996583;28;20264;-80
2022/12/25 09:42:22;;;;;;;3.67;3.30;;;12.90;99.90;;;;;;4994890;28;20219;-82
2022/12/25 09:44:54;;;;;;;6.20;3.10;;;13.00;99.90;;;;;;4993224;28;20204;-80
2022/12/25 09:47:24;;;;;;;7.97;3.25;;;13.00;99.90;;;;;;4993681;28;20248;-80
2022/12/25 09:50:22;;;;;;;4.05;3.30;;;13.00;99.90;;;;;;4994904;28;20240;-82
2022/12/25 09:52:56;;;;;;;4.47;3.53;;;13.20;99.90;;;;;;4975743;28;20213;-80
2022/12/25 09:55:24;;;;;;;2.92;2.67;;;13.00;99.90;;;;;;4994046;28;20192;-85
2022/12/25 09:57:56;;;;;;;5.60;3.45;;;12.90;99.90;;;;;;4994011;28;20236;-80
2022/12/25 10:00:27;;;;;;;6.43;4.18;;;12.90;99.90;;;;;;4994746;28;20169;-82
2022/12/25 10:03:19;;;;;;;4.93;3.55;;;12.90;99.90;;;;;;4995748;28;20232;-80
2022/12/25 10:05:56;;;;;;;3.47;3.17;;;12.90;99.90;;;;;;4997265;28;20242;-80
2022/12/25 10:08:37;;;;;;;5.57;3.70;;;13.00;99.90;;;;;;4997996;28;20251;-79
2022/12/25 10:11:25;;;;;;;3.30;3.00;;;12.90;99.90;;;;;;5003269;28;20227;-80
2022/12/25 10:14:19;;;;;;;3.53;3.22;;;13.00;99.90;;;;;;4997708;28;20204;-84
2022/12/25 10:16:50;;;;;;;7.05;3.05;;;13.20;99.90;;;;;;4989243;28;20545;-80
2022/12/25 10:19:28;;;;;;;2.92;2.60;;;13.30;99.90;;;;;;4994221;28;20271;-89
2022/12/25 10:21:59;;;;;;;3.85;3.20;;;13.40;99.90;;;;;;4995998;28;20165;-89
2022/12/25 10:24:33;;;;;;;4.40;3.30;;;13.30;99.90;;;;;;4994302;28;20176;-81
2022/12/25 10:27:04;;;;;;;4.25;3.65;;;13.30;99.90;;;;;;5000047;28;20172;-92
2022/12/25 10:29:33;;;;;;;4.13;3.72;;;13.20;99.90;;;;;;4994387;28;20205;-88
2022/12/25 10:31:59;;;;;;;4.25;3.30;;;13.30;99.90;;;;;;4993341;28;20266;-83
2022/12/25 10:34:26;;;;;;;4.72;3.17;;;13.20;99.90;;;;;;4994762;28;20271;-89
2022/12/25 10:36:52;;;;;;;3.60;3.22;;;12.90;99.90;;;;;;4993336;28;20173;-79
2022/12/25 10:39:23;;;;;;;6.72;3.13;;;12.90;99.90;;;;;;4994355;28;20510;-88
2022/12/25 10:42:17;;;;;;;4.53;3.70;;;12.90;99.90;;;;;;4994165;28;20169;-85
2022/12/25 10:44:54;;;;;;;4.43;3.58;;;13.10;99.90;;;;;;4994564;28;20629;-79
2022/12/25 10:47:25;;;;;;;5.60;3.85;;;13.20;99.90;;;;;;4997838;28;20181;-83
2022/12/25 10:49:52;;;;;;;5.63;4.75;;;13.30;99.90;;;;;;4999222;28;21766;-84
2022/12/25 10:52:21;;;;;;;4.72;4.22;;;13.40;99.90;;;;;;5003457;28;20228;-80
2022/12/25 10:54:47;;;;;;;6.57;4.93;;;13.10;99.90;;;;;;5000961;28;20176;-82
2022/12/25 10:57:15;;;;;;;7.00;5.05;;;12.90;99.90;;;;;;4993917;28;20161;-93
2022/12/25 10:59:43;;;;;;;8.90;7.18;;;12.90;99.90;;;;;;4995407;28;20228;-79
2022/12/25 11:02:14;;;;;;;6.85;6.10;;;12.70;99.90;;;;;;4993710;28;20193;-81
2022/12/25 11:04:40;;;;;;;6.97;5.75;;;12.60;99.90;;;;;;4995030;28;20174;-84
2022/12/25 11:07:23;;;;;;;5.07;4.63;;;12.50;99.90;;;;;;4993551;28;20252;-82
2022/12/25 11:09:55;;;;;;;5.63;5.03;;;12.50;99.90;;;;;;4993352;28;20205;-89
2022/12/25 11:12:29;;;;;;;7.55;4.45;;;12.60;99.90;;;;;;4993445;28;20192;-81
2022/12/25 11:14:57;;;;;;;6.35;4.82;;;12.80;99.90;;;;;;4993720;28;20177;-86
2022/12/25 11:17:25;;;;;;;5.55;5.05;;;12.90;99.90;;;;;;4993789;28;20673;-80
2022/12/25 11:19:59;;;;;;;4.72;4.28;;;12.90;99.90;;;;;;4993833;28;20181;-80
2022/12/25 11:22:27;;;;;;;7.10;5.32;;;12.90;99.90;;;;;;4992731;28;20189;-80
2022/12/25 11:24:53;;;;;;;7.45;5.05;;;12.90;99.90;;;;;;4991716;28;20199;-81
2022/12/25 11:27:29;;;;;;;5.40;3.97;;;12.80;99.90;;;;;;4993116;28;20172;-89
2022/12/25 11:29:59;;;;;;;5.22;4.70;;;12.80;99.90;;;;;;4993083;28;20608;-81
2022/12/25 11:32:24;;;;;;;5.80;4.32;;;12.60;99.90;;;;;;4995130;28;20185;-84
2022/12/25 11:34:50;;;;;;;4.70;4.30;;;12.60;99.90;;;;;;4998793;28;20259;-80
2022/12/25 11:37:29;;;;;;;5.05;4.55;;;12.50;99.90;;;;;;4999831;28;20700;-80
2022/12/25 11:39:55;;;;;;;4.53;3.08;;;12.50;99.90;;;;;;4999516;28;20177;-80
2022/12/25 11:42:31;;;;;;;7.75;4.13;;;12.30;99.90;;;;;;4996748;28;20272;-88
2022/12/25 11:45:07;;;;;;;4.30;3.45;;;12.40;99.90;;;;;;4997216;28;20215;-79
2022/12/25 11:47:47;;;;;;;3.88;3.58;;;12.50;99.90;;;;;;4996311;28;20231;-80
2022/12/25 11:50:22;;;;;;;5.10;4.25;;;12.50;99.90;;;;;;4996611;28;20205;-80
2022/12/25 11:52:49;;;;;;;3.58;3.28;;;12.70;99.90;;;;;;4995076;28;20216;-81
2022/12/25 11:55:42;;;;;;;3.63;3.33;;;12.60;99.90;;;;;;4996675;28;20180;-81
2022/12/25 11:58:27;;;;;;;4.00;3.60;;;12.40;99.90;;;;;;4996566;28;20170;-80
2022/12/25 12:00:56;;;;;;;4.53;3.38;;;12.40;99.90;;;;;;4996661;28;20709;-87
2022/12/25 12:03:29;;;;;;;4.20;3.13;;;12.40;99.90;;;;;;4995964;28;20181;-79
2022/12/25 12:06:05;;;;;;;4.03;3.63;;;12.20;99.90;;;;;;4994509;28;20173;-83
2022/12/25 12:08:55;;;;;;;3.58;3.28;;;12.10;99.90;;;;;;4994964;28;20536;-88
2022/12/25 12:11:29;;;;;;;3.78;3.47;;;12.00;99.90;;;;;;4996477;28;20181;-82
2022/12/25 12:14:31;;;;;;;4.07;3.78;;;12.10;99.90;;;;;;4994693;28;20191;-86
2022/12/25 12:16:56;;;;;;;3.10;2.83;;;12.20;99.90;;;;;;4995991;28;20168;-84
2022/12/25 12:19:37;;;;;;;3.50;3.20;;;12.00;99.90;;;;;;4995631;28;20556;-82
2022/12/25 12:22:04;;;;;;;4.25;3.03;;;12.00;99.90;;;;;;4995992;28;20665;-80
2022/12/25 12:24:41;;;;;;;3.45;3.15;;;12.20;99.90;;;;;;4995284;28;20261;-79
2022/12/25 12:27:28;;;;;;;3.65;3.35;;;12.20;99.90;;;;;;4995350;28;20161;-79
2022/12/25 12:29:57;;;;;;;8.05;3.47;;;12.20;99.90;;;;;;4993756;28;20227;-80
2022/12/25 12:32:48;;;;;;;3.03;2.83;;;12.00;99.90;;;;;;4993865;28;20220;-81
2022/12/25 12:35:22;;;;;;;3.65;3.00;;;12.00;99.90;;;;;;4995367;28;20265;-79
2022/12/25 12:37:55;;;;;;;3.63;3.08;;;12.10;99.90;;;;;;4995339;28;20161;-85
2022/12/25 12:40:26;;;;;;;3.63;3.33;;;12.20;99.90;;;;;;4995132;28;20680;-79
2022/12/25 12:42:52;;;;;;;3.35;3.05;;;12.20;99.90;;;;;;4994606;28;20241;-79
2022/12/25 12:45:33;;;;;;;3.53;3.10;;;12.30;99.90;;;;;;4995023;28;20177;-88
2022/12/25 12:47:59;;;;;;;4.35;4.03;;;12.00;99.90;;;;;;4993813;28;20173;-79
2022/12/25 12:50:26;;;;;;;4.10;3.70;;;12.10;99.90;;;;;;4994691;28;20745;-80
2022/12/25 12:52:52;;;;;;;3.75;3.45;;;12.10;99.90;;;;;;4995118;28;20533;-90
2022/12/25 12:55:31;;;;;;;3.65;3.35;;;12.00;99.90;;;;;;4995490;28;20176;-81
2022/12/25 12:58:04;;;;;;;4.20;3.80;;;11.80;99.90;;;;;;4995286;28;20171;-86
2022/12/25 13:00:43;;;;;;;3.88;3.45;;;11.80;99.90;;;;;;4994748;28;20181;-79
2022/12/25 13:03:11;;;;;;;3.97;3.67;;;11.80;99.90;;;;;;4994897;28;20216;-82
2022/12/25 13:06:03;;;;;;;4.80;4.40;;;11.80;99.90;;;;;;4994743;28;20177;-79
2022/12/25 13:08:52;;;;;;;6.20;4.47;;;11.80;99.90;;;;;;4991536;28;20183;-79
2022/12/25 13:11:24;;;;;;;5.10;4.60;;;11.90;99.90;;;;;;4994500;28;20677;-82
2022/12/25 13:13:52;;;;;;;6.30;5.68;;;11.90;99.90;;;;;;4994526;28;20193;-79
2022/12/25 13:16:39;;;;;;;6.50;5.90;;;12.10;99.90;;;;;;4994754;28;20176;-80
2022/12/25 13:19:15;;;;;;;7.38;6.78;;;11.90;99.90;;;;;;4994620;28;20165;-79
2022/12/25 13:21:57;;;;;;;5.57;5.07;;;11.80;99.90;;;;;;4994641;28;20192;-79
2022/12/25 13:24:25;;;;;;;5.50;5.00;;;12.00;99.90;;;;;;4994264;28;20197;-79
2022/12/25 13:26:51;;;;;;;5.05;4.55;;;12.00;99.90;;;;;;4994503;28;20169;-81
2022/12/25 13:29:37;;;;;;;5.35;4.85;;;12.10;99.90;;;;;;4994449;28;20204;-79
2022/12/25 13:32:05;;;;;;;8.20;5.60;;;12.20;99.90;;;;;;4994976;28;20205;-79
2022/12/25 13:34:38;;;;;;;7.30;5.68;;;12.30;99.90;;;;;;4994009;28;20161;-79
2022/12/25 13:37:13;;;;;;;5.88;5.30;;;12.20;99.90;;;;;;4993889;28;20252;-79
2022/12/25 13:39:52;;;;;;;6.03;5.45;;;12.50;99.90;;;;;;4994232;28;20640;-79
2022/12/25 13:42:22;;;;;;;6.72;5.78;;;12.70;99.90;;;;;;4994166;28;20181;-81
2022/12/25 13:44:53;;;;;;;7.28;5.50;;;12.70;99.90;;;;;;4994611;28;20173;-89
2022/12/25 13:47:41;;;;;;;7.18;6.47;;;12.70;99.90;;;;;;4994099;28;20642;-81
2022/12/25 13:50:31;;;;;;;7.35;6.43;;;12.80;99.90;;;;;;4994450;28;20244;-89
2022/12/25 13:53:10;;;;;;;5.88;5.40;;;12.80;99.90;;;;;;4993051;28;20222;-88
2022/12/25 13:55:36;;;;;;;8.20;6.13;;;12.80;99.90;;;;;;4992314;28;20541;-80
2022/12/25 13:58:04;;;;;;;7.10;6.40;;;12.80;99.90;;;;;;4994048;28;20173;-79
2022/12/25 14:00:48;;;;;;;6.80;5.97;;;12.90;99.90;;;;;;4992111;28;20200;-79
2022/12/25 14:03:20;;;;;;;6.68;6.07;;;12.80;99.90;;;;;;4993381;28;20685;-82
2022/12/25 14:05:58;;;;;;;6.95;6.35;;;12.90;99.90;;;;;;4993137;28;20173;-79
2022/12/25 14:08:26;;;;;;;6.80;6.10;;;12.90;99.90;;;;;;4993298;28;20179;-79
2022/12/25 14:10:54;;;;;;;7.65;6.40;;;13.00;99.90;;;;;;4992006;28;20209;-79
2022/12/25 14:13:24;;;;;;;9.88;6.70;;;12.90;99.90;;;;;;4993469;28;20240;-79
2022/12/25 14:15:52;;;;;;;6.95;5.95;;;13.10;99.90;;;;;;4993621;28;20172;-79
2022/12/25 14:18:20;;;;;;;7.45;6.68;;;13.00;99.90;;;;;;4993507;28;20176;-80
2022/12/25 14:21:09;;;;;;;7.45;6.82;;;13.00;99.90;;;;;;4992214;28;20185;-79
2022/12/25 14:23:46;;;;;;;8.43;7.63;;;13.10;99.90;;;;;;4992950;28;20193;-82
2022/12/25 14:26:17;;;;;;;8.27;7.47;;;13.10;99.90;;;;;;4991914;28;20173;-79
2022/12/25 14:28:59;;;;;;;11.57;9.27;;;13.00;99.90;;;;;;4991771;28;20165;-79
2022/12/25 14:31:27;;;;;;;10.30;9.20;;;13.10;99.90;;;;;;4992958;28;20214;-80
2022/12/25 14:33:54;;;;;;;10.70;9.52;;;13.30;99.90;;;;;;4993140;28;20188;-79
2022/12/25 14:36:20;;;;;;;9.90;8.90;;;13.30;99.90;;;;;;4992968;28;20247;-80
2022/12/25 14:38:58;;;;;;;9.48;8.48;;;13.30;99.90;;;;;;4992153;28;20508;-84
2022/12/25 14:41:51;;;;;;;10.18;7.13;;;13.30;99.90;;;;;;4992051;28;20176;-79
2022/12/25 14:44:34;;;;;;;8.52;7.63;;;13.30;99.90;;;;;;4992870;28;20169;-79